createdAt,value
2019-03-23T00:00:23.738Z,101226.14
2019-03-23T00:05:28.522Z,101226.14
2019-03-23T00:10:33.243Z,101210.45
2019-03-23T00:15:38.059Z,101208.94
2019-03-23T00:20:42.808Z,101200.59
2019-03-23T00:25:47.435Z,101195.42
2019-03-23T00:30:52.130Z,101195.42
2019-03-23T00:35:56.717Z,101200.66
2019-03-23T00:41:01.471Z,101194.08
2019-03-23T00:46:06.191Z,101161.76
2019-03-23T00:51:10.766Z,101175.20
2019-03-23T00:56:16.590Z,101178.70
2019-03-23T01:01:21.507Z,101178.70
2019-03-23T01:06:26.218Z,101169.75
2019-03-23T01:11:30.880Z,101164.97
2019-03-23T01:16:35.811Z,101171.58
2019-03-23T01:21:40.468Z,101162.71
2019-03-23T01:26:45.104Z,101162.71
2019-03-23T01:31:49.651Z,101146.41
2019-03-23T01:37:02.515Z,101145.00
2019-03-23T01:42:00.563Z,101145.00
2019-03-23T01:47:05.230Z,101146.63
2019-03-23T01:52:09.840Z,101146.47
2019-03-23T01:57:14.497Z,101146.95
2019-03-23T02:02:19.075Z,101130.88
2019-03-23T02:07:23.683Z,101158.67
2019-03-23T02:12:28.265Z,101154.84
2019-03-23T02:17:32.871Z,101134.34
2019-03-23T02:22:37.451Z,101131.27
2019-03-23T02:27:42.115Z,101130.40
2019-03-23T02:32:46.830Z,101141.55
2019-03-23T02:37:51.448Z,101137.52
2019-03-23T02:42:56.067Z,101137.89
2019-03-23T02:48:00.632Z,101137.89
2019-03-23T02:53:05.254Z,101137.09
2019-03-23T03:03:13.126Z,101143.94
2019-03-23T03:08:17.745Z,101126.36
2019-03-23T03:13:22.432Z,101136.64
2019-03-23T03:18:27.003Z,101136.71
2019-03-23T03:23:31.614Z,101124.51
2019-03-23T03:28:36.453Z,101124.96
2019-03-23T03:33:41.110Z,101130.36
2019-03-23T03:38:45.694Z,101137.03
2019-03-23T03:43:50.249Z,101123.71
2019-03-23T03:48:54.891Z,101124.96
2019-03-23T03:53:59.641Z,101115.94
2019-03-23T03:59:04.300Z,101115.94
2019-03-23T04:04:08.905Z,101112.92
2019-03-23T04:09:13.479Z,101119.12
2019-03-23T04:14:18.082Z,101109.36
2019-03-23T04:19:22.679Z,101107.48
2019-03-23T04:24:27.220Z,101115.72
2019-03-23T04:29:31.809Z,101125.16
2019-03-23T04:34:36.534Z,101108.45
2019-03-23T04:39:41.080Z,101108.45
2019-03-23T04:44:45.707Z,101112.16
2019-03-23T04:49:50.292Z,101112.16
2019-03-23T04:54:54.903Z,101126.02
2019-03-23T04:59:59.543Z,101102.09
2019-03-23T05:05:04.719Z,101111.19
2019-03-23T05:10:09.519Z,101113.79
2019-03-23T05:15:14.343Z,101115.07
2019-03-23T05:20:36.987Z,101119.56
2019-03-23T05:30:44.665Z,101124.67
2019-03-23T05:35:49.278Z,101124.67
2019-03-23T05:40:53.931Z,101129.11
2019-03-23T05:56:05.360Z,101122.27
2019-03-23T06:01:10.031Z,101127.75
2019-03-23T06:11:17.750Z,101132.50
2019-03-23T06:16:22.353Z,101123.16
2019-03-23T06:21:27.035Z,101130.67
2019-03-23T06:26:31.605Z,101124.41
2019-03-23T06:31:36.204Z,101125.27
2019-03-23T06:36:40.879Z,101125.27
2019-03-23T06:41:45.566Z,101129.70
2019-03-23T06:46:50.240Z,101130.19
2019-03-23T06:51:54.828Z,101135.75
2019-03-23T06:56:59.480Z,101133.37
2019-03-23T07:02:04.196Z,101134.40
2019-03-23T07:07:08.786Z,101136.05
2019-03-23T07:12:13.359Z,101138.39
2019-03-23T07:17:17.938Z,101135.95
2019-03-23T07:22:22.550Z,101137.02
2019-03-23T07:27:27.123Z,101138.46
2019-03-23T07:32:31.828Z,101132.27
2019-03-23T07:37:36.412Z,101135.64
2019-03-23T07:42:41.112Z,101124.61
2019-03-23T07:47:45.801Z,101127.82
2019-03-23T07:52:50.393Z,101131.54
2019-03-23T07:57:55.002Z,101127.11
2019-03-23T08:02:59.607Z,101127.11
2019-03-23T08:08:04.212Z,101141.67
2019-03-23T08:13:08.913Z,101143.94
2019-03-23T08:18:13.501Z,101127.80
2019-03-23T08:23:18.213Z,101145.61
2019-03-23T08:28:22.915Z,101151.44
2019-03-23T08:33:27.508Z,101150.48
2019-03-23T08:38:32.232Z,101128.86
2019-03-23T08:43:36.964Z,101132.75
2019-03-23T08:48:41.707Z,101138.52
2019-03-23T08:53:46.368Z,101138.27
2019-03-23T08:58:48.936Z,101131.30
2019-03-23T09:03:53.585Z,101135.96
2019-03-23T09:08:58.194Z,101134.67
2019-03-23T09:14:02.776Z,101138.72
2019-03-23T09:19:07.535Z,101123.86
2019-03-23T09:24:12.209Z,101123.86
2019-03-23T09:29:19.399Z,101132.46
2019-03-23T09:34:24.103Z,101142.03
2019-03-23T09:39:28.763Z,101143.95
2019-03-23T09:44:33.380Z,101141.73
2019-03-23T09:49:38.395Z,101140.77
2019-03-23T09:54:43.083Z,101140.77
2019-03-23T09:59:47.708Z,101146.69
2019-03-23T10:04:52.298Z,101129.24
2019-03-23T10:15:20.771Z,101146.64
2019-03-23T10:20:25.588Z,101148.85
2019-03-23T10:25:30.272Z,101151.55
2019-03-23T10:30:34.864Z,101151.55
2019-03-23T10:35:39.470Z,101154.08
2019-03-23T10:40:44.131Z,101124.00
2019-03-23T10:45:48.721Z,101124.00
2019-03-23T10:50:53.393Z,101128.98
2019-03-23T10:55:58.153Z,101129.44
2019-03-23T11:06:23.241Z,101135.72
2019-03-23T11:11:27.961Z,101120.09
2019-03-23T11:16:32.603Z,101122.14
2019-03-23T11:21:37.252Z,101120.07
2019-03-23T11:26:42.021Z,101121.64
2019-03-23T11:31:46.773Z,101118.80
2019-03-23T11:36:51.389Z,101118.80
2019-03-23T11:41:56.160Z,101109.50
2019-03-23T11:47:00.810Z,101109.50
2019-03-23T11:52:05.696Z,101112.84
2019-03-23T11:57:10.572Z,101097.55
2019-03-23T12:02:17.745Z,101103.70
2019-03-23T12:07:22.882Z,101100.08
2019-03-23T12:12:27.500Z,101093.41
2019-03-23T12:17:32.181Z,101093.41
2019-03-23T12:22:36.882Z,101089.69
2019-03-23T12:27:41.614Z,101099.50
2019-03-23T12:37:59.762Z,101086.32
2019-03-23T12:43:04.441Z,101086.32
2019-03-23T12:48:09.083Z,101090.39
2019-03-23T13:26:19.997Z,101073.55
2019-03-23T13:31:24.610Z,101086.67
2019-03-23T13:36:29.264Z,101090.23
2019-03-23T13:41:33.889Z,101090.23
2019-03-23T13:46:38.453Z,101093.34
2019-03-23T13:51:43.021Z,101093.34
2019-03-23T13:56:47.635Z,101099.41
2019-03-23T14:01:52.207Z,101099.41
2019-03-23T14:06:56.755Z,101106.36
2019-03-23T14:12:01.327Z,101096.62
2019-03-23T14:17:06.027Z,101100.59
2019-03-23T14:22:10.571Z,101111.37
2019-03-23T14:27:15.150Z,101109.16
2019-03-23T14:32:19.756Z,101099.79
2019-03-23T14:37:24.372Z,101115.95
2019-03-23T15:04:55.051Z,101141.17
2019-03-23T15:09:59.661Z,101141.17
2019-03-23T15:15:04.441Z,101134.91
2019-03-23T15:20:09.298Z,101152.37
2019-03-23T15:25:14.033Z,101156.34
2019-03-23T15:30:18.618Z,101156.73
2019-03-23T15:35:23.206Z,101159.07
2019-03-23T15:40:27.805Z,101169.88
2019-03-23T15:45:32.489Z,101180.38
2019-03-23T15:50:37.031Z,101176.81
2019-03-23T15:55:41.666Z,101182.69
2019-03-23T16:00:46.374Z,101185.45
2019-03-23T16:05:51.086Z,101185.45
2019-03-23T16:10:55.660Z,101193.53
2019-03-23T16:16:00.323Z,101193.53
2019-03-23T16:21:05.068Z,101207.20
2019-03-23T16:26:09.875Z,101209.89
2019-03-23T16:31:14.444Z,101216.41
2019-03-23T16:36:19.060Z,101218.23
2019-03-23T16:41:23.622Z,101222.72
2019-03-23T16:46:28.168Z,101221.86
2019-03-23T16:51:32.789Z,101234.14
2019-03-23T16:56:37.368Z,101234.14
2019-03-23T17:01:41.908Z,101245.53
2019-03-23T17:06:46.867Z,101245.30
2019-03-23T17:11:52.774Z,101235.33
2019-03-23T17:16:57.532Z,101245.56
2019-03-23T17:22:02.104Z,101252.17
2019-03-23T17:27:06.915Z,101252.17
2019-03-23T17:32:11.574Z,101248.72
2019-03-23T17:37:16.234Z,101248.72
2019-03-23T17:42:21.095Z,101276.58
2019-03-23T17:47:25.765Z,101287.26
2019-03-23T17:52:30.508Z,101298.28
2019-03-23T17:57:35.185Z,101301.66
2019-03-23T18:02:39.829Z,101306.44
2019-03-23T18:07:44.458Z,101315.95
2019-03-23T18:12:49.117Z,101329.30
2019-03-23T18:17:53.662Z,101329.30
2019-03-23T18:22:58.216Z,101333.14
2019-03-23T18:28:02.784Z,101354.26
2019-03-23T18:33:07.648Z,101365.77
2019-03-23T18:38:12.434Z,101372.27
2019-03-23T18:43:27.060Z,101372.27
2019-03-23T18:48:23.452Z,101375.05
2019-03-23T18:53:28.050Z,101390.46
2019-03-23T18:58:32.645Z,101398.15
2019-03-23T19:03:37.237Z,101398.15
2019-03-23T19:08:41.824Z,101401.62
2019-03-23T19:13:46.545Z,101401.62
2019-03-23T19:18:51.128Z,101409.87
2019-03-23T19:23:55.694Z,101420.20
2019-03-23T19:29:00.266Z,101414.39
2019-03-23T19:34:04.992Z,101418.78
2019-03-23T19:39:10.306Z,101431.30
2019-03-23T19:44:14.905Z,101431.78
2019-03-23T19:49:20.674Z,101431.10
2019-03-23T19:54:25.232Z,101440.21
2019-03-23T19:59:29.873Z,101440.21
2019-03-23T20:04:34.653Z,101441.89
2019-03-23T20:09:39.319Z,101448.09
2019-03-23T20:14:43.915Z,101456.34
2019-03-23T20:19:48.490Z,101456.34
2019-03-23T20:24:53.071Z,101452.68
2019-03-23T20:29:57.699Z,101467.13
2019-03-23T20:35:02.309Z,101472.03
2019-03-23T20:40:09.093Z,101463.23
2019-03-23T20:45:15.380Z,101466.08
2019-03-23T20:50:20.138Z,101471.37
2019-03-23T20:55:27.118Z,101466.46
2019-03-23T21:00:31.718Z,101461.25
2019-03-23T21:05:36.415Z,101450.65
2019-03-23T21:10:41.130Z,101455.95
2019-03-23T21:15:46.403Z,101457.83
2019-03-23T21:20:51.114Z,101451.16
2019-03-23T21:25:55.916Z,101457.50
2019-03-23T21:31:00.626Z,101442.14
2019-03-23T21:36:05.478Z,101444.02
2019-03-23T21:41:10.140Z,101443.63
2019-03-23T21:46:14.942Z,101443.48
2019-03-23T21:51:19.785Z,101438.57
2019-03-23T21:56:24.508Z,101436.32
2019-03-23T22:01:29.207Z,101429.77
2019-03-23T22:06:33.934Z,101426.50
2019-03-23T22:11:38.618Z,101427.07
2019-03-23T22:16:43.277Z,101427.07
2019-03-23T22:21:47.975Z,101430.63
2019-03-23T22:26:52.681Z,101430.63
2019-03-23T22:31:57.362Z,101425.09
2019-03-23T22:37:02.006Z,101425.09
2019-03-23T22:42:06.724Z,101419.22
2019-03-23T22:47:11.365Z,101424.84
2019-03-23T22:52:15.998Z,101416.67
2019-03-23T22:57:20.666Z,101419.94
2019-03-23T23:02:25.500Z,101419.94
2019-03-23T23:07:30.756Z,101385.34
2019-03-23T23:12:35.492Z,101399.14
2019-03-23T23:17:40.082Z,101395.97
2019-03-23T23:22:44.700Z,101388.54
2019-03-23T23:27:49.452Z,101388.54
2019-03-23T23:32:54.150Z,101393.19
2019-03-23T23:37:58.821Z,101380.54
2019-03-23T23:43:03.504Z,101370.60
2019-03-23T23:48:08.227Z,101395.01
2019-03-23T23:53:12.962Z,101386.44
2019-03-23T23:58:17.547Z,101386.44
